createdAt,value
2022-09-28T00:02:12.718Z,1
2022-09-28T00:03:55.905Z,0
2022-09-28T00:05:55.537Z,0
2022-09-28T00:07:23.608Z,0
2022-09-28T00:09:07.264Z,0
2022-09-28T00:10:59.218Z,0
2022-09-28T00:12:37.015Z,0
2022-09-28T00:14:19.149Z,0
2022-09-28T00:16:02.069Z,0
2022-09-28T00:17:51.096Z,0
2022-09-28T00:22:56.901Z,0
2022-09-28T00:24:40.591Z,0
2022-09-28T00:26:24.025Z,0
2022-09-28T00:28:07.991Z,0
2022-09-28T00:29:51.432Z,0
2022-09-28T00:31:35.654Z,0
2022-09-28T00:33:18.851Z,0
2022-09-28T00:35:03.072Z,0
2022-09-28T00:40:14.680Z,0
2022-09-28T00:42:01.463Z,0
2022-09-28T00:43:41.034Z,0
2022-09-28T00:45:25.004Z,0
2022-09-28T00:47:08.443Z,0
2022-09-28T00:52:27.584Z,0
2022-09-28T00:54:03.252Z,0
2022-09-28T00:55:47.224Z,0
2022-09-28T00:57:32.510Z,0
2022-09-28T01:01:14.584Z,0
2022-09-28T01:02:42.036Z,0
2022-09-28T01:08:42.866Z,0
2022-09-28T01:09:36.667Z,0
2022-09-28T01:16:38.405Z,0
2022-09-28T01:19:32.830Z,0
2022-09-28T01:19:59.071Z,0
2022-09-28T01:21:43.294Z,0
2022-09-28T01:23:26.463Z,0
2022-09-28T01:25:09.928Z,0
2022-09-28T01:26:54.656Z,0
2022-09-28T01:28:37.600Z,0
2022-09-28T01:30:21.548Z,0
2022-09-28T01:37:16.633Z,0
2022-09-28T01:39:03.935Z,0
2022-09-28T01:40:51.072Z,0
2022-09-28T01:42:26.949Z,0
2022-09-28T01:44:10.663Z,0
2022-09-28T01:45:54.645Z,0
2022-09-28T01:47:38.065Z,0
2022-09-28T01:51:05.463Z,0
2022-09-28T01:52:49.180Z,0
2022-09-28T01:57:17.870Z,0
2022-09-28T01:58:00.363Z,0
2022-09-28T02:00:16.988Z,0
2022-09-28T02:01:35.945Z,0
2022-09-28T02:03:44.367Z,0
2022-09-28T02:06:53.056Z,0
2022-09-28T02:08:23.008Z,1
2022-09-28T02:10:23.213Z,0
2022-09-28T02:11:50.391Z,0
2022-09-28T02:13:33.581Z,0
2022-09-28T02:15:17.807Z,0
2022-09-28T02:17:01.242Z,0
2022-09-28T02:18:44.691Z,0
2022-09-28T02:20:28.914Z,0
2022-09-28T02:22:21.828Z,0
2022-09-28T02:23:55.791Z,0
2022-09-28T02:25:40.535Z,0
2022-09-28T02:27:23.197Z,0
2022-09-28T02:30:50.630Z,0
2022-09-28T02:32:34.315Z,0
2022-09-28T02:34:18.018Z,0
2022-09-28T02:36:03.947Z,0
2022-09-28T02:37:45.715Z,0
2022-09-28T02:39:29.151Z,0
2022-09-28T02:41:12.829Z,0
2022-09-28T02:46:30.950Z,0
2022-09-28T02:48:07.913Z,0
2022-09-28T02:51:36.286Z,0
2022-09-28T02:53:19.079Z,0
2022-09-28T02:55:02.432Z,0
2022-09-28T02:57:21.632Z,1
2022-09-28T03:00:23.679Z,0
2022-09-28T03:01:57.269Z,0
2022-09-28T03:03:43.082Z,0
2022-09-28T03:05:24.659Z,0
2022-09-28T03:07:25.869Z,0
2022-09-28T03:08:52.324Z,0
2022-09-28T03:10:35.764Z,0
2022-09-28T03:12:19.464Z,0
2022-09-28T03:14:04.322Z,0
2022-09-28T03:17:30.878Z,0
2022-09-28T03:19:17.469Z,0
2022-09-28T03:21:08.830Z,0
2022-09-28T03:22:41.675Z,0
2022-09-28T03:24:26.288Z,0
2022-09-28T03:26:17.946Z,0
2022-09-28T03:27:52.813Z,1
2022-09-28T03:29:36.776Z,0
2022-09-28T03:31:21.031Z,0
2022-09-28T03:33:03.884Z,0
2022-09-28T03:36:31.815Z,0
2022-09-28T03:38:15.509Z,0
2022-09-28T03:41:48.614Z,0
2022-09-28T03:43:28.585Z,0
2022-09-28T03:45:11.788Z,0
2022-09-28T03:46:53.778Z,1
2022-09-28T03:48:37.464Z,0
2022-09-28T03:50:35.947Z,0
2022-09-28T03:52:04.874Z,0
2022-09-28T03:53:48.315Z,0
2022-09-28T03:56:08.664Z,0
2022-09-28T03:57:15.985Z,0
2022-09-28T03:59:01.639Z,0
2022-09-28T04:00:43.102Z,1
2022-09-28T04:02:27.390Z,0
2022-09-28T04:04:15.027Z,0
2022-09-28T04:09:26.106Z,0
2022-09-28T04:11:09.871Z,0
2022-09-28T04:12:49.020Z,0
2022-09-28T04:14:32.720Z,0
2022-09-28T04:16:17.556Z,0
2022-09-28T04:18:00.677Z,1
2022-09-28T04:19:43.840Z,0
2022-09-28T04:21:27.533Z,0
2022-09-28T04:26:38.682Z,0
2022-09-28T04:28:22.360Z,0
2022-09-28T04:30:06.038Z,0
2022-09-28T04:31:58.602Z,0
2022-09-28T04:33:35.679Z,1
2022-09-28T04:35:17.171Z,0
2022-09-28T04:40:02.320Z,0
2022-09-28T04:40:02.367Z,0
2022-09-28T04:40:31.053Z,0
2022-09-28T04:42:12.207Z,0
2022-09-28T04:44:12.567Z,1
2022-09-28T04:45:39.908Z,0
2022-09-28T04:47:23.088Z,0
2022-09-28T04:49:06.773Z,0
2022-09-28T04:50:59.331Z,0
2022-09-28T04:52:34.144Z,0
2022-09-28T04:54:17.833Z,0
2022-09-28T04:56:01.538Z,0
2022-09-28T04:57:45.290Z,0
2022-09-28T04:59:29.224Z,0
2022-09-28T05:01:15.307Z,0
2022-09-28T05:02:56.344Z,0
2022-09-28T05:06:23.746Z,0
2022-09-28T05:08:07.504Z,0
2022-09-28T05:09:51.177Z,0
2022-09-28T05:11:44.011Z,1
2022-09-28T05:13:18.897Z,1
2022-09-28T05:15:02.855Z,1
2022-09-28T05:16:46.046Z,1
2022-09-28T05:18:29.699Z,0
2022-09-28T05:20:14.265Z,0
2022-09-28T05:21:57.368Z,0
2022-09-28T05:23:41.115Z,0
2022-09-28T05:25:24.560Z,1
2022-09-28T05:27:08.474Z,1
2022-09-28T05:28:53.029Z,1
2022-09-28T05:30:35.884Z,2
2022-09-28T05:32:19.289Z,3
2022-09-28T05:34:03.009Z,3
2022-09-28T05:36:04.823Z,2
2022-09-28T05:37:32.634Z,2
2022-09-28T05:39:14.409Z,1
2022-09-28T05:40:57.819Z,2
2022-09-28T05:42:42.443Z,1
2022-09-28T05:44:25.431Z,1
2022-09-28T05:46:08.960Z,1
2022-09-28T05:47:52.633Z,2
2022-09-28T05:49:36.918Z,4
2022-09-28T05:51:20.053Z,5
2022-09-28T05:53:03.732Z,5
2022-09-28T05:54:47.747Z,5
2022-09-28T05:56:31.164Z,5
2022-09-28T05:59:59.729Z,6
2022-09-28T06:01:44.494Z,7
2022-09-28T06:06:54.532Z,6
2022-09-28T06:08:37.592Z,6
2022-09-28T06:10:20.741Z,5
2022-09-28T06:12:04.452Z,4
2022-09-28T06:13:56.128Z,5
2022-09-28T06:15:32.162Z,6
2022-09-28T06:20:42.971Z,18
2022-09-28T06:22:27.447Z,13
2022-09-28T06:24:10.412Z,10
2022-09-28T06:25:54.116Z,11
2022-09-28T06:27:38.068Z,13
2022-09-28T06:29:21.494Z,13
2022-09-28T06:31:05.187Z,13
2022-09-28T06:32:50.028Z,14
2022-09-28T06:34:33.149Z,15
2022-09-28T06:36:18.383Z,18
2022-09-28T06:38:00.871Z,21
2022-09-28T06:39:44.019Z,23
2022-09-28T06:41:27.965Z,23
2022-09-28T06:43:11.147Z,26
2022-09-28T06:44:54.917Z,29
2022-09-28T06:46:39.108Z,29
2022-09-28T06:48:22.211Z,629
2022-09-28T06:50:06.234Z,612
2022-09-28T06:51:49.670Z,664
2022-09-28T06:53:33.442Z,565
2022-09-28T06:55:17.629Z,522
2022-09-28T06:57:01.592Z,543
2022-09-28T06:58:44.427Z,555
2022-09-28T07:00:28.194Z,516
2022-09-28T07:02:11.869Z,465
2022-09-28T07:03:55.572Z,480
2022-09-28T07:05:39.258Z,440
2022-09-28T07:07:24.048Z,457
2022-09-28T07:09:06.858Z,529
2022-09-28T07:16:01.489Z,775
2022-09-28T07:17:45.302Z,775
2022-09-28T07:19:28.921Z,773
2022-09-28T07:21:12.724Z,689
2022-09-28T07:22:56.438Z,775
2022-09-28T07:24:40.113Z,775
2022-09-28T07:26:23.696Z,773
2022-09-28T07:28:07.423Z,776
2022-09-28T07:29:51.140Z,776
2022-09-28T07:31:34.826Z,775
2022-09-28T07:33:18.490Z,776
2022-09-28T07:35:02.187Z,775
2022-09-28T07:36:45.896Z,776
2022-09-28T07:38:29.675Z,775
2022-09-28T07:40:13.331Z,775
2022-09-28T07:41:57.014Z,775
2022-09-28T07:43:40.697Z,776
2022-09-28T07:45:24.499Z,776
2022-09-28T07:47:08.111Z,776
2022-09-28T07:48:51.861Z,777
2022-09-28T07:50:35.534Z,776
2022-09-28T07:52:19.224Z,775
2022-09-28T07:54:02.912Z,777
2022-09-28T07:55:46.600Z,776
2022-09-28T07:57:30.305Z,776
2022-09-28T07:59:14.059Z,776
2022-09-28T08:00:57.750Z,776
2022-09-28T08:02:41.426Z,776
2022-09-28T08:04:25.129Z,777
2022-09-28T08:06:08.843Z,776
2022-09-28T08:07:52.593Z,776
2022-09-28T08:09:36.263Z,776
2022-09-28T08:11:19.947Z,776
2022-09-28T08:13:03.628Z,777
2022-09-28T08:14:47.306Z,776
2022-09-28T08:16:31.011Z,776
2022-09-28T08:18:14.703Z,776
2022-09-28T08:19:58.487Z,776
2022-09-28T08:21:42.190Z,776
2022-09-28T08:23:25.829Z,777
2022-09-28T08:25:09.511Z,776
2022-09-28T08:26:53.221Z,776
2022-09-28T08:28:36.917Z,776
2022-09-28T08:30:20.679Z,776
2022-09-28T08:32:04.394Z,775
2022-09-28T08:33:48.048Z,775
2022-09-28T08:35:31.737Z,776
2022-09-28T08:37:15.418Z,775
2022-09-28T08:40:42.883Z,775
2022-09-28T08:42:26.559Z,775
2022-09-28T08:44:10.253Z,776
2022-09-28T08:45:53.956Z,680
2022-09-28T08:47:37.671Z,751
2022-09-28T08:49:21.408Z,776
2022-09-28T08:51:05.083Z,776
2022-09-28T08:52:48.769Z,776
2022-09-28T08:54:32.450Z,776
2022-09-28T08:56:16.173Z,776
2022-09-28T08:57:59.929Z,776
2022-09-28T08:59:43.612Z,777
2022-09-28T09:01:27.297Z,777
2022-09-28T09:03:10.978Z,776
2022-09-28T09:04:54.662Z,777
2022-09-28T09:06:38.377Z,776
2022-09-28T09:08:22.150Z,776
2022-09-28T09:10:05.820Z,776
2022-09-28T09:11:49.497Z,777
2022-09-28T09:13:33.187Z,777
2022-09-28T09:15:16.888Z,777
2022-09-28T09:17:00.656Z,777
2022-09-28T09:18:44.337Z,777
2022-09-28T09:20:28.073Z,777
2022-09-28T09:22:11.725Z,777
2022-09-28T09:23:55.396Z,777
2022-09-28T09:25:39.098Z,777
2022-09-28T09:27:22.813Z,776
2022-09-28T09:29:06.555Z,777
2022-09-28T09:30:50.221Z,777
2022-09-28T09:32:33.918Z,778
2022-09-28T09:34:17.668Z,778
2022-09-28T09:36:01.327Z,777
2022-09-28T09:37:45.078Z,777
2022-09-28T09:39:28.748Z,777
2022-09-28T09:41:12.446Z,777
2022-09-28T09:42:56.118Z,778
2022-09-28T09:44:39.822Z,778
2022-09-28T09:46:23.501Z,778
2022-09-28T09:48:07.273Z,777
2022-09-28T09:49:50.962Z,777
2022-09-28T09:51:34.639Z,777
2022-09-28T09:53:18.373Z,778
2022-09-28T09:55:02.029Z,777
2022-09-28T09:56:45.727Z,778
2022-09-28T09:58:29.481Z,778
2022-09-28T10:00:13.158Z,777
2022-09-28T10:01:56.844Z,778
2022-09-28T10:03:40.532Z,778
2022-09-28T10:05:24.279Z,777
2022-09-28T10:07:07.941Z,777
2022-09-28T10:08:51.687Z,777
2022-09-28T10:10:35.360Z,777
2022-09-28T10:12:19.043Z,777
2022-09-28T10:14:02.744Z,778
2022-09-28T10:15:46.524Z,778
2022-09-28T10:17:30.209Z,777
2022-09-28T10:19:13.886Z,777
2022-09-28T10:20:57.581Z,777
2022-09-28T10:22:41.261Z,777
2022-09-28T10:24:24.966Z,777
2022-09-28T10:26:08.734Z,775
2022-09-28T10:27:52.417Z,777
2022-09-28T10:29:36.094Z,777
2022-09-28T10:31:19.785Z,777
2022-09-28T10:33:03.486Z,775
2022-09-28T10:34:47.179Z,777
2022-09-28T10:36:30.938Z,777
2022-09-28T10:38:14.617Z,777
2022-09-28T10:39:58.301Z,776
2022-09-28T10:41:41.981Z,778
2022-09-28T10:43:25.696Z,777
2022-09-28T10:45:09.458Z,777
2022-09-28T10:46:53.141Z,776
2022-09-28T10:48:36.826Z,777
2022-09-28T10:50:20.509Z,777
2022-09-28T10:52:04.213Z,777
2022-09-28T10:53:47.904Z,775
2022-09-28T10:55:31.600Z,777
2022-09-28T10:57:15.347Z,777
2022-09-28T10:58:59.028Z,777
2022-09-28T11:00:42.721Z,776
2022-09-28T11:02:26.416Z,777
2022-09-28T11:04:10.194Z,777
2022-09-28T11:05:53.926Z,777
2022-09-28T11:07:37.557Z,777
2022-09-28T11:09:21.236Z,777
2022-09-28T11:11:04.939Z,778
2022-09-28T11:12:48.642Z,775
2022-09-28T11:14:32.400Z,775
2022-09-28T11:16:16.081Z,777
2022-09-28T11:17:59.759Z,778
2022-09-28T11:19:43.449Z,778
2022-09-28T11:21:27.163Z,775
2022-09-28T11:23:10.855Z,777
2022-09-28T11:24:54.603Z,778
2022-09-28T11:26:38.277Z,777
2022-09-28T11:28:21.970Z,777
2022-09-28T11:30:05.681Z,778
2022-09-28T11:31:49.447Z,777
2022-09-28T11:33:33.136Z,778
2022-09-28T11:35:16.823Z,778
2022-09-28T11:37:00.504Z,778
2022-09-28T11:38:44.192Z,777
2022-09-28T11:40:27.967Z,778
2022-09-28T11:42:11.668Z,777
2022-09-28T11:43:55.329Z,777
2022-09-28T11:45:39.027Z,778
2022-09-28T11:47:22.719Z,777
2022-09-28T11:49:06.418Z,778
2022-09-28T11:50:50.173Z,777
2022-09-28T11:52:33.851Z,777
2022-09-28T11:54:17.572Z,778
2022-09-28T11:56:01.219Z,778
2022-09-28T11:57:44.925Z,778
2022-09-28T11:59:28.627Z,777
2022-09-28T12:01:12.386Z,778
2022-09-28T12:02:56.057Z,778
2022-09-28T12:04:39.750Z,778
2022-09-28T12:06:23.470Z,778
2022-09-28T12:08:07.141Z,778
2022-09-28T12:09:50.830Z,777
2022-09-28T12:11:34.580Z,777
2022-09-28T12:13:18.266Z,777
2022-09-28T12:15:01.948Z,777
2022-09-28T12:16:45.647Z,777
2022-09-28T12:18:29.329Z,777
2022-09-28T12:20:13.038Z,777
2022-09-28T12:21:56.787Z,778
2022-09-28T12:23:40.468Z,778
2022-09-28T12:25:24.146Z,777
2022-09-28T12:27:07.846Z,777
2022-09-28T12:28:51.558Z,777
2022-09-28T12:30:35.312Z,778
2022-09-28T12:32:18.995Z,777
2022-09-28T12:34:02.747Z,778
2022-09-28T12:35:46.358Z,778
2022-09-28T12:37:30.064Z,778
2022-09-28T12:39:13.758Z,778
2022-09-28T12:40:57.513Z,778
2022-09-28T12:42:41.194Z,775
2022-09-28T12:44:24.873Z,778
2022-09-28T12:46:08.573Z,778
2022-09-28T12:47:52.294Z,778
2022-09-28T12:49:36.055Z,778
2022-09-28T12:51:19.723Z,778
2022-09-28T12:53:03.437Z,778
2022-09-28T12:54:47.099Z,778
2022-09-28T12:56:30.802Z,778
2022-09-28T12:58:14.501Z,779
2022-09-28T12:59:58.283Z,779
2022-09-28T13:01:41.925Z,777
2022-09-28T13:03:25.604Z,778
2022-09-28T13:05:09.337Z,779
2022-09-28T13:06:53.002Z,778
2022-09-28T13:08:36.764Z,779
2022-09-28T13:10:20.454Z,778
2022-09-28T13:12:04.148Z,779
2022-09-28T13:13:47.818Z,778
2022-09-28T13:15:31.521Z,778
2022-09-28T13:17:15.208Z,778
2022-09-28T13:18:58.969Z,778
2022-09-28T13:20:42.652Z,778
2022-09-28T13:22:26.411Z,778
2022-09-28T13:24:10.022Z,779
2022-09-28T13:25:53.725Z,778
2022-09-28T13:27:37.432Z,778
2022-09-28T13:29:21.191Z,777
2022-09-28T13:31:04.862Z,778
2022-09-28T13:32:48.594Z,777
2022-09-28T13:34:32.288Z,779
2022-09-28T13:36:15.965Z,777
2022-09-28T13:37:59.645Z,778
2022-09-28T13:39:43.390Z,778
2022-09-28T13:41:27.073Z,778
2022-09-28T13:43:10.792Z,777
2022-09-28T13:44:54.447Z,777
2022-09-28T13:46:38.156Z,778
2022-09-28T13:48:21.908Z,778
2022-09-28T13:50:05.587Z,775
2022-09-28T13:51:49.271Z,778
2022-09-28T13:53:32.966Z,778
2022-09-28T13:55:16.668Z,778
2022-09-28T13:57:00.425Z,776
2022-09-28T13:58:44.113Z,777
2022-09-28T14:00:27.796Z,777
2022-09-28T14:02:11.484Z,778
2022-09-28T14:03:55.192Z,777
2022-09-28T14:05:38.893Z,778
2022-09-28T14:07:22.636Z,778
2022-09-28T14:09:06.317Z,777
2022-09-28T14:10:50.004Z,777
2022-09-28T14:12:33.700Z,777
2022-09-28T14:14:17.410Z,777
2022-09-28T14:16:01.158Z,777
2022-09-28T14:17:44.855Z,778
2022-09-28T14:19:28.522Z,778
2022-09-28T14:21:12.224Z,777
2022-09-28T14:22:56.001Z,777
2022-09-28T14:24:39.688Z,777
2022-09-28T14:26:23.366Z,777
2022-09-28T14:28:07.051Z,777
2022-09-28T14:29:50.757Z,777
2022-09-28T14:31:34.475Z,777
2022-09-28T14:33:18.183Z,777
2022-09-28T14:35:01.889Z,777
2022-09-28T14:36:45.569Z,777
2022-09-28T14:38:29.248Z,778
2022-09-28T14:40:12.971Z,778
2022-09-28T14:41:56.676Z,777
2022-09-28T14:43:40.434Z,775
2022-09-28T14:45:24.116Z,777
2022-09-28T14:47:07.770Z,778
2022-09-28T14:48:51.470Z,777
2022-09-28T14:50:35.176Z,777
2022-09-28T14:52:18.938Z,778
2022-09-28T14:54:02.627Z,777
2022-09-28T14:55:46.308Z,777
2022-09-28T14:57:29.990Z,777
2022-09-28T14:59:13.698Z,777
2022-09-28T15:00:57.406Z,777
2022-09-28T15:02:41.153Z,777
2022-09-28T15:04:24.852Z,777
2022-09-28T15:06:08.501Z,778
2022-09-28T15:07:52.196Z,777
2022-09-28T15:09:35.924Z,777
2022-09-28T15:11:19.617Z,777
2022-09-28T15:13:03.347Z,777
2022-09-28T15:14:47.032Z,777
2022-09-28T15:16:30.712Z,778
2022-09-28T15:18:14.420Z,777
2022-09-28T15:19:58.202Z,777
2022-09-28T15:21:41.869Z,776
2022-09-28T15:23:25.547Z,778
2022-09-28T15:25:09.234Z,777
2022-09-28T15:26:52.917Z,777
2022-09-28T15:28:36.625Z,776
2022-09-28T15:30:20.332Z,776
2022-09-28T15:32:04.072Z,777
2022-09-28T15:33:47.757Z,777
2022-09-28T15:35:31.452Z,776
2022-09-28T15:37:15.135Z,775
2022-09-28T15:38:58.877Z,777
2022-09-28T15:40:42.596Z,777
2022-09-28T15:42:26.277Z,777
2022-09-28T15:44:09.961Z,777
2022-09-28T15:45:53.647Z,776
2022-09-28T15:47:37.373Z,777
2022-09-28T15:49:21.123Z,777
2022-09-28T15:51:04.807Z,776
2022-09-28T15:52:48.483Z,738
2022-09-28T15:54:32.177Z,693
2022-09-28T15:56:15.885Z,674
2022-09-28T15:57:59.575Z,661
2022-09-28T15:59:43.331Z,633
2022-09-28T16:01:27.010Z,622
2022-09-28T16:03:10.709Z,633
2022-09-28T16:04:54.388Z,630
2022-09-28T16:06:38.080Z,637
2022-09-28T16:08:21.852Z,635
2022-09-28T16:10:05.529Z,636
2022-09-28T16:11:49.212Z,615
2022-09-28T16:13:32.903Z,595
2022-09-28T16:15:16.605Z,574
2022-09-28T16:17:00.317Z,544
2022-09-28T16:18:44.055Z,503
2022-09-28T16:20:27.737Z,462
2022-09-28T16:22:11.427Z,439
2022-09-28T16:23:55.107Z,442
2022-09-28T16:25:38.808Z,458
2022-09-28T16:27:22.497Z,468
2022-09-28T16:29:06.261Z,475
2022-09-28T16:30:49.945Z,464
2022-09-28T16:32:33.617Z,451
2022-09-28T16:34:17.307Z,435
2022-09-28T16:36:01.009Z,413
2022-09-28T16:37:44.720Z,366
2022-09-28T16:39:28.473Z,312
2022-09-28T16:41:12.146Z,277
2022-09-28T16:42:55.831Z,265
2022-09-28T16:44:39.545Z,252
2022-09-28T16:46:23.214Z,218
2022-09-28T16:48:06.917Z,193
2022-09-28T16:49:50.673Z,169
2022-09-28T16:51:34.356Z,151
2022-09-28T16:53:18.069Z,137
2022-09-28T16:55:01.722Z,120
2022-09-28T16:56:45.424Z,112
2022-09-28T16:58:29.199Z,107
2022-09-28T17:00:12.895Z,99
2022-09-28T17:01:56.566Z,91
2022-09-28T17:03:40.253Z,77
2022-09-28T17:05:23.956Z,59
2022-09-28T17:07:07.641Z,53
2022-09-28T17:08:51.402Z,56
2022-09-28T17:10:35.088Z,50
2022-09-28T17:12:18.816Z,40
2022-09-28T17:14:02.600Z,39
2022-09-28T17:15:46.273Z,46
2022-09-28T17:17:29.999Z,36
2022-09-28T17:19:13.778Z,19
2022-09-28T17:20:57.445Z,10
2022-09-28T17:22:41.058Z,7
2022-09-28T17:24:24.834Z,5
2022-09-28T17:26:08.505Z,4
2022-09-28T17:27:52.130Z,3
2022-09-28T17:29:35.808Z,2
2022-09-28T17:31:19.537Z,14
2022-09-28T17:33:03.177Z,14
2022-09-28T17:34:46.921Z,15
2022-09-28T17:36:30.716Z,15
2022-09-28T17:38:14.404Z,15
2022-09-28T17:39:58.143Z,92
2022-09-28T17:41:41.777Z,776
2022-09-28T17:43:25.509Z,776
2022-09-28T17:45:09.216Z,775
2022-09-28T17:46:52.924Z,775
2022-09-28T17:48:36.657Z,775
2022-09-28T17:50:20.355Z,776
2022-09-28T17:52:04.049Z,606
2022-09-28T17:53:47.658Z,775
2022-09-28T17:55:31.290Z,776
2022-09-28T17:57:15.062Z,612
2022-09-28T17:58:58.874Z,651
2022-09-28T18:00:42.565Z,654
2022-09-28T18:02:26.265Z,646
2022-09-28T18:04:09.955Z,580
2022-09-28T18:05:53.662Z,750
2022-09-28T18:07:37.424Z,774
2022-09-28T18:09:21.087Z,760
2022-09-28T18:11:04.755Z,742
2022-09-28T18:12:48.507Z,773
2022-09-28T18:14:32.161Z,529
2022-09-28T18:16:15.883Z,505
2022-09-28T18:17:59.609Z,683
2022-09-28T18:19:43.306Z,771
2022-09-28T18:21:26.986Z,696
2022-09-28T18:23:10.665Z,601
2022-09-28T18:24:54.402Z,775
2022-09-28T18:26:38.134Z,398
2022-09-28T18:28:21.828Z,539
2022-09-28T18:30:05.486Z,580
2022-09-28T18:31:49.049Z,628
2022-09-28T18:33:32.748Z,599
2022-09-28T18:35:16.444Z,632
2022-09-28T18:37:00.365Z,776
2022-09-28T18:38:44.015Z,776
2022-09-28T18:40:27.722Z,18
2022-09-28T18:42:11.408Z,17
2022-09-28T18:43:55.111Z,18
2022-09-28T18:45:38.871Z,18
2022-09-28T18:47:22.539Z,19
2022-09-28T18:49:06.247Z,18
2022-09-28T18:50:49.944Z,20
2022-09-28T18:52:33.634Z,21
2022-09-28T18:54:17.328Z,20
2022-09-28T18:56:01.083Z,18
2022-09-28T18:57:44.786Z,18
2022-09-28T18:59:28.447Z,18
2022-09-28T19:01:12.019Z,18
2022-09-28T19:02:55.790Z,19
2022-09-28T19:04:39.532Z,19
2022-09-28T19:06:23.264Z,20
2022-09-28T19:08:06.974Z,17
2022-09-28T19:09:50.641Z,20
2022-09-28T19:11:34.340Z,19
2022-09-28T19:13:18.034Z,20
2022-09-28T19:15:01.751Z,21
2022-09-28T19:16:45.503Z,20
2022-09-28T19:18:29.194Z,19
2022-09-28T19:20:12.823Z,17
2022-09-28T19:21:56.545Z,18
2022-09-28T19:23:40.273Z,20
2022-09-28T19:25:23.863Z,20
2022-09-28T19:27:07.543Z,15
2022-09-28T19:28:51.348Z,21
2022-09-28T19:30:35.039Z,4
2022-09-28T19:32:18.729Z,6
2022-09-28T19:34:02.475Z,4
2022-09-28T19:35:46.278Z,5
2022-09-28T19:37:29.749Z,4
2022-09-28T19:39:13.558Z,4
2022-09-28T19:40:57.272Z,5
2022-09-28T19:42:40.986Z,4
2022-09-28T19:44:24.676Z,4
2022-09-28T19:46:08.371Z,4
2022-09-28T19:47:52.108Z,4
2022-09-28T19:49:35.767Z,5
2022-09-28T19:51:19.491Z,5
2022-09-28T19:53:03.172Z,5
2022-09-28T19:54:46.867Z,4
2022-09-28T19:56:30.632Z,4
2022-09-28T19:58:14.310Z,5
2022-09-28T19:59:57.986Z,5
2022-09-28T20:01:41.667Z,4
2022-09-28T20:03:25.369Z,5
2022-09-28T20:05:09.082Z,4
2022-09-28T20:06:52.851Z,4
2022-09-28T20:08:36.513Z,4
2022-09-28T20:10:20.188Z,4
2022-09-28T20:12:03.908Z,4
2022-09-28T20:13:47.587Z,5
2022-09-28T20:15:31.209Z,4
2022-09-28T20:17:15.012Z,5
2022-09-28T20:18:58.725Z,4
2022-09-28T20:20:42.422Z,4
2022-09-28T20:22:26.107Z,5
2022-09-28T20:24:09.805Z,4
2022-09-28T20:25:53.545Z,4
2022-09-28T20:27:37.261Z,5
2022-09-28T20:29:20.945Z,5
2022-09-28T20:31:04.470Z,5
2022-09-28T20:32:48.303Z,5
2022-09-28T20:34:31.864Z,4
2022-09-28T20:36:15.761Z,4
2022-09-28T20:37:59.429Z,4
2022-09-28T20:39:43.115Z,4
2022-09-28T20:41:26.832Z,5
2022-09-28T20:43:10.537Z,4
2022-09-28T20:44:54.298Z,5
2022-09-28T20:46:37.975Z,4
2022-09-28T20:48:21.668Z,5
2022-09-28T20:50:05.209Z,4
2022-09-28T20:51:49.061Z,5
2022-09-28T20:53:32.821Z,5
2022-09-28T20:55:16.486Z,5
2022-09-28T20:57:00.182Z,4
2022-09-28T20:58:43.872Z,4
2022-09-28T21:00:27.591Z,5
2022-09-28T21:02:11.348Z,4
2022-09-28T21:03:54.870Z,5
2022-09-28T21:05:38.713Z,4
2022-09-28T21:07:22.483Z,89
2022-09-28T21:09:05.948Z,4
2022-09-28T21:10:49.778Z,5
2022-09-28T21:12:33.536Z,4
2022-09-28T21:14:17.078Z,5
2022-09-28T21:16:00.919Z,5
2022-09-28T21:17:44.640Z,4
2022-09-28T21:19:28.364Z,4
2022-09-28T21:21:12.078Z,4
2022-09-28T21:22:55.609Z,4
2022-09-28T21:24:39.440Z,4
2022-09-28T21:26:23.028Z,5
2022-09-28T21:28:06.837Z,5
2022-09-28T21:29:50.612Z,4
2022-09-28T21:31:34.273Z,5
2022-09-28T21:33:17.915Z,4
2022-09-28T21:35:01.679Z,4
2022-09-28T21:36:45.300Z,4
2022-09-28T21:38:29.057Z,5
2022-09-28T21:40:12.785Z,5
2022-09-28T21:41:56.329Z,4
2022-09-28T21:43:40.176Z,5
2022-09-28T21:45:23.869Z,5
2022-09-28T21:47:07.574Z,5
2022-09-28T21:48:51.322Z,4
2022-09-28T21:50:34.940Z,5
2022-09-28T21:52:18.685Z,4
2022-09-28T21:54:02.355Z,89
2022-09-28T21:55:46.091Z,89
2022-09-28T21:57:29.881Z,90
2022-09-28T21:59:13.527Z,90
2022-09-28T22:00:57.220Z,90
2022-09-28T22:02:40.899Z,89
2022-09-28T22:04:24.564Z,90
2022-09-28T22:06:08.359Z,89
2022-09-28T22:07:51.991Z,89
2022-09-28T22:09:35.673Z,90
2022-09-28T22:11:19.355Z,90
2022-09-28T22:13:03.021Z,90
2022-09-28T22:14:46.782Z,95
2022-09-28T22:16:30.509Z,90
2022-09-28T22:18:14.127Z,87
2022-09-28T22:19:57.899Z,87
2022-09-28T22:21:41.594Z,88
2022-09-28T22:23:25.252Z,87
2022-09-28T22:25:08.857Z,88
2022-09-28T22:26:52.559Z,1
2022-09-28T22:28:36.451Z,1
2022-09-28T22:30:20.100Z,1
2022-09-28T22:32:03.809Z,1
2022-09-28T22:33:47.397Z,1
2022-09-28T22:35:31.129Z,2
2022-09-28T22:37:14.827Z,1
2022-09-28T22:38:58.591Z,1
2022-09-28T22:40:42.200Z,1
2022-09-28T22:42:25.920Z,1
2022-09-28T22:44:09.717Z,0
2022-09-28T22:45:53.315Z,1
2022-09-28T22:47:37.158Z,1
2022-09-28T22:49:20.864Z,1
2022-09-28T22:51:04.536Z,1
2022-09-28T22:52:48.213Z,1
2022-09-28T22:54:31.844Z,0
2022-09-28T22:56:15.574Z,1
2022-09-28T22:57:59.267Z,1
2022-09-28T22:59:43.025Z,1
2022-09-28T23:01:26.700Z,1
2022-09-28T23:03:10.339Z,1
2022-09-28T23:04:54.097Z,1
2022-09-28T23:06:37.818Z,1
2022-09-28T23:08:21.484Z,1
2022-09-28T23:10:05.150Z,1
2022-09-28T23:11:48.974Z,1
2022-09-28T23:13:32.699Z,1
2022-09-28T23:15:16.365Z,1
2022-09-28T23:17:00.042Z,1
2022-09-28T23:18:43.702Z,1
2022-09-28T23:20:27.372Z,1
2022-09-28T23:22:11.070Z,1
2022-09-28T23:23:54.875Z,1
2022-09-28T23:25:38.548Z,1
2022-09-28T23:27:22.183Z,1
2022-09-28T23:29:05.862Z,1
2022-09-28T23:30:49.597Z,1
2022-09-28T23:32:33.382Z,1
2022-09-28T23:34:17.050Z,0
2022-09-28T23:36:00.709Z,1
2022-09-28T23:37:44.464Z,1
2022-09-28T23:39:28.073Z,1
2022-09-28T23:41:11.780Z,1
2022-09-28T23:42:55.488Z,1
2022-09-28T23:44:39.169Z,1
2022-09-28T23:46:22.947Z,1
2022-09-28T23:48:06.588Z,1
2022-09-28T23:49:50.273Z,1
2022-09-28T23:51:34.113Z,1
2022-09-28T23:53:17.730Z,0
2022-09-28T23:55:01.551Z,1
2022-09-28T23:56:45.159Z,0
2022-09-28T23:58:28.847Z,1
